Time;durP1;ratioP1;P1;durP2;ratioP2;P2;SDS_P1;SDS_P2;PMS_P1;PMS_P2;Temp;Humidity;BMP_temperature;BMP_pressure;BME280_temperature;BME280_humidity;BME280_pressure;Samples;Min_cycle;Max_cycle;Signal;HPM_P1;HPM_P2
2023/08/18 00:00:34;;;;;;;4.90;4.47;;;21.00;73.30;;;;;;6224837;28;20324;-83
2023/08/18 00:03:37;;;;;;;5.73;4.83;;;21.00;73.30;;;;;;6235187;28;20264;-82
2023/08/18 00:06:41;;;;;;;5.60;4.60;;;21.00;73.40;;;;;;6231896;28;20279;-82
2023/08/18 00:09:44;;;;;;;5.50;5.07;;;20.90;73.60;;;;;;6211133;28;20227;-81
2023/08/18 00:12:49;;;;;;;4.90;4.67;;;20.90;73.80;;;;;;6217552;28;20265;-83
2023/08/18 00:15:52;;;;;;;5.40;5.10;;;20.90;73.80;;;;;;6234874;28;20304;-82
2023/08/18 00:18:55;;;;;;;5.77;4.93;;;20.90;73.90;;;;;;6228503;28;20239;-80
2023/08/18 00:21:59;;;;;;;5.07;4.87;;;20.80;73.90;;;;;;6211425;28;20238;-81
2023/08/18 00:25:03;;;;;;;5.57;5.07;;;20.80;74.00;;;;;;6212023;28;20231;-80
2023/08/18 00:28:08;;;;;;;6.60;6.03;;;20.80;74.00;;;;;;6223088;28;20282;-82
2023/08/18 00:31:11;;;;;;;5.80;5.47;;;20.80;74.10;;;;;;6219334;28;20801;-81
2023/08/18 00:34:14;;;;;;;5.10;4.80;;;20.80;74.10;;;;;;6224524;28;20377;-81
2023/08/18 00:37:17;;;;;;;5.00;4.90;;;20.70;74.20;;;;;;6222421;28;20278;-81
2023/08/18 00:40:23;;;;;;;5.57;5.07;;;20.70;74.40;;;;;;6217814;28;20838;-84
2023/08/18 00:43:28;;;;;;;5.77;5.40;;;20.70;74.50;;;;;;6214866;28;20243;-82
2023/08/18 00:46:32;;;;;;;5.90;5.50;;;20.70;74.60;;;;;;6222909;28;20247;-83
2023/08/18 00:49:35;;;;;;;5.57;5.30;;;20.70;74.60;;;;;;6218461;28;20330;-83
2023/08/18 00:52:39;;;;;;;5.03;4.83;;;20.70;74.60;;;;;;6229662;28;20258;-82
2023/08/18 00:55:43;;;;;;;5.07;4.87;;;20.70;74.70;;;;;;6226155;28;20227;-79
2023/08/18 00:58:47;;;;;;;6.10;5.70;;;20.70;74.70;;;;;;6211895;28;20258;-82
2023/08/18 01:01:50;;;;;;;6.30;5.90;;;20.80;74.70;;;;;;6227077;28;20239;-81
2023/08/18 01:04:54;;;;;;;6.50;6.00;;;20.70;74.80;;;;;;6213272;28;20932;-82
2023/08/18 01:07:57;;;;;;;7.33;6.63;;;20.70;75.00;;;;;;6218739;28;20301;-83
2023/08/18 01:11:06;;;;;;;6.77;6.23;;;20.70;75.30;;;;;;6206566;28;20712;-81
2023/08/18 01:14:20;;;;;;;7.07;6.43;;;20.60;75.30;;;;;;6221095;28;20227;-82
2023/08/18 01:17:28;;;;;;;8.33;7.47;;;20.60;75.50;;;;;;6219789;28;20238;-83
2023/08/18 01:20:33;;;;;;;7.67;6.93;;;20.70;75.70;;;;;;6222487;28;20231;-82
2023/08/18 01:23:41;;;;;;;7.83;7.33;;;20.70;75.70;;;;;;6237870;28;20238;-83
2023/08/18 01:26:44;;;;;;;8.10;7.50;;;20.70;75.70;;;;;;6232127;28;20744;-82
2023/08/18 01:29:47;;;;;;;8.27;7.43;;;20.70;76.10;;;;;;6238469;28;20246;-83
2023/08/18 01:33:02;;;;;;;8.10;7.60;;;20.70;76.10;;;;;;6237245;28;20766;-83
2023/08/18 01:36:09;;;;;;;8.77;8.27;;;20.70;76.20;;;;;;6238853;28;20316;-83
2023/08/18 01:39:15;;;;;;;9.77;8.93;;;20.70;76.20;;;;;;6217081;28;20238;-83
2023/08/18 01:42:19;;;;;;;8.67;7.90;;;20.80;76.50;;;;;;6236950;28;20234;-82
2023/08/18 01:45:22;;;;;;;9.77;8.90;;;20.80;76.40;;;;;;6238550;28;20317;-81
2023/08/18 01:48:25;;;;;;;9.33;8.57;;;20.90;76.60;;;;;;6235405;28;20250;-81
2023/08/18 01:51:28;;;;;;;9.30;8.70;;;20.80;76.60;;;;;;6229332;28;20758;-83
2023/08/18 01:54:33;;;;;;;8.97;8.17;;;20.90;76.50;;;;;;6228945;28;20235;-79
2023/08/18 01:57:36;;;;;;;10.27;9.30;;;20.80;76.50;;;;;;6230178;28;20234;-83
2023/08/18 02:00:39;;;;;;;9.60;9.10;;;20.80;76.60;;;;;;6229038;28;20282;-82
2023/08/18 02:03:43;;;;;;;9.00;8.33;;;20.80;76.80;;;;;;6230367;28;20305;-82
2023/08/18 02:06:46;;;;;;;8.07;7.67;;;20.80;76.70;;;;;;6237899;28;20634;-82
2023/08/18 02:09:50;;;;;;;9.33;8.50;;;20.70;76.60;;;;;;6238060;28;20241;-84
2023/08/18 02:12:53;;;;;;;9.37;8.57;;;20.70;76.70;;;;;;6237020;28;20235;-82
2023/08/18 02:15:56;;;;;;;9.47;8.77;;;20.70;76.70;;;;;;6235634;28;20247;-83
2023/08/18 02:19:00;;;;;;;9.53;8.67;;;20.70;76.80;;;;;;6237008;28;20308;-83
2023/08/18 02:22:03;;;;;;;10.73;9.20;;;20.60;77.00;;;;;;6237128;28;20223;-83
2023/08/18 02:25:08;;;;;;;8.13;7.63;;;20.60;77.20;;;;;;6238578;28;20784;-81
2023/08/18 02:28:11;;;;;;;11.77;10.60;;;20.60;77.20;;;;;;6222882;28;20249;-84
2023/08/18 02:31:14;;;;;;;10.87;9.87;;;20.60;77.50;;;;;;6228168;28;20305;-82
2023/08/18 02:34:17;;;;;;;9.47;8.77;;;20.50;77.60;;;;;;6224657;28;20243;-84
2023/08/18 02:37:20;;;;;;;9.07;8.37;;;20.60;77.50;;;;;;6236116;28;20242;-83
2023/08/18 02:40:25;;;;;;;11.93;10.07;;;20.60;77.30;;;;;;6238403;28;20334;-83
2023/08/18 02:43:28;;;;;;;9.83;8.97;;;20.60;77.50;;;;;;6226933;28;20377;-83
2023/08/18 02:46:31;;;;;;;10.37;9.77;;;20.60;77.50;;;;;;6238131;28;20227;-84
2023/08/18 02:49:40;;;;;;;9.80;9.10;;;20.50;77.50;;;;;;6234418;28;20317;-82
2023/08/18 02:52:43;;;;;;;10.77;9.97;;;20.60;77.50;;;;;;6236045;28;20905;-81
2023/08/18 02:55:48;;;;;;;10.57;9.77;;;20.60;77.60;;;;;;6237618;28;20239;-82
2023/08/18 02:58:51;;;;;;;11.17;10.27;;;20.50;77.50;;;;;;6229078;28;20270;-84
2023/08/18 03:01:54;;;;;;;9.43;8.83;;;20.50;77.60;;;;;;6231334;28;20865;-84
2023/08/18 03:04:58;;;;;;;8.63;8.13;;;20.50;77.60;;;;;;6237963;28;20249;-83
2023/08/18 03:08:01;;;;;;;8.60;8.20;;;20.50;77.60;;;;;;6233825;28;20325;-78
2023/08/18 03:11:06;;;;;;;10.33;9.33;;;20.50;77.50;;;;;;6231566;28;20359;-83
2023/08/18 03:14:09;;;;;;;9.37;8.83;;;20.60;77.60;;;;;;6235392;28;20231;-84
2023/08/18 03:17:12;;;;;;;9.13;8.57;;;20.50;77.60;;;;;;6221770;28;20373;-83
2023/08/18 03:20:16;;;;;;;9.97;9.27;;;20.50;77.60;;;;;;6225213;28;20227;-80
2023/08/18 03:23:20;;;;;;;10.50;9.70;;;20.50;77.50;;;;;;6237075;28;20333;-85
2023/08/18 03:26:24;;;;;;;9.33;8.53;;;20.50;77.50;;;;;;6236670;28;20281;-83
2023/08/18 03:29:27;;;;;;;9.03;8.53;;;20.50;77.60;;;;;;6237126;28;20381;-83
2023/08/18 03:32:30;;;;;;;9.43;8.83;;;20.50;77.60;;;;;;6223533;28;20300;-81
2023/08/18 03:35:35;;;;;;;9.30;8.70;;;20.50;77.60;;;;;;6233167;28;20325;-79
2023/08/18 03:38:38;;;;;;;9.70;8.83;;;20.50;77.70;;;;;;6233741;28;20230;-81
2023/08/18 03:41:43;;;;;;;9.63;8.73;;;20.50;77.80;;;;;;6206339;28;20313;-77
2023/08/18 03:44:46;;;;;;;9.37;8.77;;;20.50;77.80;;;;;;6227651;28;20246;-79
2023/08/18 03:47:51;;;;;;;11.10;10.30;;;20.50;77.80;;;;;;6229290;28;20318;-81
2023/08/18 03:50:54;;;;;;;10.20;9.60;;;20.50;77.80;;;;;;6230040;28;20249;-81
2023/08/18 03:53:57;;;;;;;10.70;9.77;;;20.50;77.80;;;;;;6232998;28;20332;-80
2023/08/18 03:57:01;;;;;;;10.10;9.40;;;20.50;77.70;;;;;;6226616;28;20239;-81
2023/08/18 04:00:09;;;;;;;9.57;8.93;;;20.50;77.70;;;;;;6208132;28;20242;-82
2023/08/18 04:03:12;;;;;;;9.30;8.77;;;20.50;77.70;;;;;;6235667;28;20227;-82
2023/08/18 04:06:16;;;;;;;9.13;8.33;;;20.50;77.80;;;;;;6235227;28;20361;-81
2023/08/18 04:09:19;;;;;;;10.33;9.63;;;20.50;77.90;;;;;;6235441;28;20234;-82
2023/08/18 04:12:23;;;;;;;10.13;9.33;;;20.50;77.90;;;;;;6231499;28;20305;-81
2023/08/18 04:15:26;;;;;;;9.87;9.13;;;20.50;77.80;;;;;;6229726;28;20628;-79
2023/08/18 04:18:31;;;;;;;11.33;10.43;;;20.50;77.90;;;;;;6235644;28;20277;-77
2023/08/18 04:21:34;;;;;;;9.97;9.37;;;20.50;77.90;;;;;;6222390;28;20631;-81
2023/08/18 04:24:37;;;;;;;10.63;9.73;;;20.50;77.90;;;;;;6215913;28;20325;-81
2023/08/18 04:27:42;;;;;;;10.50;9.70;;;20.50;77.90;;;;;;6205442;28;20239;-80
2023/08/18 04:30:46;;;;;;;10.07;9.40;;;20.50;77.80;;;;;;6219263;28;20316;-81
2023/08/18 04:33:49;;;;;;;10.33;9.57;;;20.50;77.80;;;;;;6209276;28;20716;-81
2023/08/18 04:36:52;;;;;;;10.13;9.30;;;20.60;77.70;;;;;;6181539;28;20260;-82
2023/08/18 04:39:55;;;;;;;9.73;8.90;;;20.60;77.60;;;;;;6217866;28;20757;-82
2023/08/18 04:43:00;;;;;;;10.67;9.90;;;20.60;77.60;;;;;;6208059;28;20263;-81
2023/08/18 04:46:03;;;;;;;11.43;10.37;;;20.70;77.40;;;;;;6210865;28;20244;-80
2023/08/18 04:49:06;;;;;;;10.97;10.07;;;20.70;77.30;;;;;;6204952;28;20813;-83
2023/08/18 04:52:10;;;;;;;11.03;9.83;;;20.70;77.30;;;;;;6213090;28;20387;-82
2023/08/18 04:55:15;;;;;;;11.37;10.47;;;20.80;77.20;;;;;;6207686;28;20605;-82
2023/08/18 04:58:22;;;;;;;9.37;8.87;;;20.80;77.20;;;;;;6190560;28;20231;-83
2023/08/18 05:01:25;;;;;;;11.83;10.83;;;20.90;77.20;;;;;;6211995;28;20266;-81
2023/08/18 05:04:28;;;;;;;11.80;10.77;;;20.90;76.90;;;;;;6225600;28;20246;-82
2023/08/18 05:07:32;;;;;;;11.97;10.70;;;21.00;76.80;;;;;;6222382;28;20739;-81
2023/08/18 05:10:36;;;;;;;12.40;11.40;;;21.00;76.70;;;;;;6215632;28;20247;-81
2023/08/18 05:13:42;;;;;;;10.43;9.70;;;21.10;76.20;;;;;;6225462;28;20243;-82
2023/08/18 05:16:45;;;;;;;13.33;10.37;;;21.10;76.40;;;;;;6226961;28;20243;-82
2023/08/18 05:19:51;;;;;;;11.93;10.73;;;21.10;76.20;;;;;;6229221;28;20909;-81
2023/08/18 05:22:56;;;;;;;11.57;10.67;;;21.10;76.40;;;;;;6236333;28;20234;-81
2023/08/18 05:26:01;;;;;;;12.03;11.07;;;21.20;76.10;;;;;;6236070;28;20333;-81
2023/08/18 05:29:06;;;;;;;12.10;11.00;;;21.30;76.00;;;;;;6225569;28;20254;-79
2023/08/18 05:32:09;;;;;;;12.63;11.53;;;21.40;75.90;;;;;;6233609;28;20874;-80
2023/08/18 05:35:12;;;;;;;10.67;9.70;;;21.40;75.80;;;;;;6232460;28;20243;-83
2023/08/18 05:38:16;;;;;;;13.00;11.80;;;21.40;75.80;;;;;;6233851;28;20230;-79
2023/08/18 05:41:19;;;;;;;11.90;11.20;;;21.50;75.80;;;;;;6233602;28;20309;-81
2023/08/18 05:44:23;;;;;;;12.07;11.07;;;21.50;75.40;;;;;;6239143;28;20234;-80
2023/08/18 05:47:26;;;;;;;10.17;9.47;;;21.70;75.20;;;;;;6235841;28;20292;-84
2023/08/18 05:50:30;;;;;;;11.17;10.23;;;21.80;75.20;;;;;;6235200;28;20242;-81
2023/08/18 05:53:33;;;;;;;12.33;11.43;;;21.90;74.80;;;;;;6238199;28;20606;-82
2023/08/18 05:56:36;;;;;;;10.20;9.60;;;22.10;74.50;;;;;;6227332;28;20564;-83
2023/08/18 05:59:40;;;;;;;12.67;11.77;;;22.20;73.90;;;;;;6236458;28;20247;-80
2023/08/18 06:02:44;;;;;;;11.93;10.83;;;22.40;73.10;;;;;;6237889;28;20245;-82
2023/08/18 06:05:47;;;;;;;10.83;10.03;;;22.60;72.90;;;;;;6237121;28;20238;-84
2023/08/18 06:08:50;;;;;;;11.27;10.47;;;22.80;72.20;;;;;;6237961;28;20246;-82
2023/08/18 06:11:55;;;;;;;10.97;10.27;;;23.00;71.90;;;;;;6237915;28;20230;-83
2023/08/18 06:14:59;;;;;;;11.57;10.40;;;23.10;71.10;;;;;;6236589;28;20243;-80
2023/08/18 06:18:02;;;;;;;10.23;9.57;;;23.20;70.90;;;;;;6228128;28;20393;-81
2023/08/18 06:21:06;;;;;;;12.23;11.43;;;23.40;70.70;;;;;;6237202;28;20239;-83
2023/08/18 06:24:11;;;;;;;10.93;9.77;;;23.60;69.90;;;;;;6219863;28;20645;-81
2023/08/18 06:27:14;;;;;;;11.07;10.27;;;23.80;69.50;;;;;;6218667;28;20284;-80
2023/08/18 06:30:18;;;;;;;10.70;9.90;;;23.90;68.60;;;;;;6233221;28;20470;-84
2023/08/18 06:33:21;;;;;;;11.30;10.20;;;24.00;68.60;;;;;;6235657;28;20266;-81
2023/08/18 06:36:24;;;;;;;11.93;11.03;;;24.00;68.30;;;;;;6239007;28;20234;-83
2023/08/18 06:39:28;;;;;;;12.30;11.20;;;24.00;68.30;;;;;;6234530;28;20668;-81
2023/08/18 06:42:31;;;;;;;10.80;10.00;;;24.00;67.90;;;;;;6230030;28;20261;-80
2023/08/18 06:45:36;;;;;;;11.73;10.73;;;24.00;68.30;;;;;;6232663;28;20257;-81
2023/08/18 06:48:39;;;;;;;11.10;10.30;;;23.90;68.10;;;;;;6234492;28;20265;-82
2023/08/18 06:51:42;;;;;;;10.90;9.97;;;24.00;68.20;;;;;;6233794;28;20238;-82
2023/08/18 06:54:47;;;;;;;8.83;8.43;;;24.00;67.80;;;;;;6238429;28;20230;-82
2023/08/18 06:57:50;;;;;;;10.10;9.40;;;24.00;68.20;;;;;;6230617;28;20357;-80
2023/08/18 07:00:55;;;;;;;9.63;9.13;;;23.90;68.00;;;;;;6237888;28;20388;-80
2023/08/18 07:03:58;;;;;;;11.17;10.30;;;24.00;68.40;;;;;;6237001;28;20242;-80
2023/08/18 07:07:03;;;;;;;9.10;8.57;;;24.00;67.50;;;;;;6232161;28;20720;-82
2023/08/18 07:10:07;;;;;;;10.27;9.57;;;24.20;67.80;;;;;;6230219;28;20261;-82
2023/08/18 07:13:11;;;;;;;11.13;9.97;;;24.20;67.40;;;;;;6231094;28;20251;-81
2023/08/18 07:16:15;;;;;;;9.50;8.83;;;24.40;67.00;;;;;;6237770;28;20243;-82
2023/08/18 07:19:19;;;;;;;11.20;10.27;;;24.40;66.90;;;;;;6230956;28;20245;-80
2023/08/18 07:22:22;;;;;;;10.77;9.87;;;24.40;66.50;;;;;;6227888;28;20372;-81
2023/08/18 07:25:25;;;;;;;9.93;9.13;;;24.20;66.90;;;;;;6237524;28;20334;-81
2023/08/18 07:28:28;;;;;;;10.60;9.57;;;24.20;66.50;;;;;;6237204;28;20242;-81
2023/08/18 07:31:33;;;;;;;9.37;8.67;;;24.40;66.40;;;;;;6237951;28;20230;-81
2023/08/18 07:34:36;;;;;;;10.00;9.03;;;24.50;65.80;;;;;;6224795;28;20222;-80
2023/08/18 07:37:40;;;;;;;9.13;8.43;;;24.50;65.70;;;;;;6238923;28;20317;-82
2023/08/18 07:40:46;;;;;;;9.93;9.17;;;24.60;66.20;;;;;;6239346;28;20234;-82
2023/08/18 07:43:49;;;;;;;10.03;9.40;;;24.50;65.50;;;;;;6238042;28;20234;-80
2023/08/18 07:46:53;;;;;;;9.77;9.10;;;24.60;65.50;;;;;;6237255;28;20258;-83
2023/08/18 07:49:56;;;;;;;9.03;8.43;;;24.60;65.40;;;;;;6235207;28;20332;-83
2023/08/18 07:53:00;;;;;;;9.80;9.07;;;24.70;65.40;;;;;;6229612;28;20374;-83
2023/08/18 07:56:04;;;;;;;10.90;9.93;;;24.80;65.00;;;;;;6237352;28;20910;-79
2023/08/18 07:59:07;;;;;;;14.70;9.33;;;24.80;64.70;;;;;;6230475;28;20250;-79
2023/08/18 08:02:12;;;;;;;9.43;8.73;;;24.90;64.80;;;;;;6237154;28;20239;-81
2023/08/18 08:05:33;;;;;;;8.77;8.17;;;24.90;65.10;;;;;;6236941;28;20799;-80
2023/08/18 08:08:36;;;;;;;10.10;9.30;;;25.00;64.40;;;;;;6236570;28;20245;-82
2023/08/18 08:11:39;;;;;;;8.47;7.90;;;25.00;64.70;;;;;;6223486;28;20252;-82
2023/08/18 08:14:42;;;;;;;7.87;7.37;;;25.00;64.70;;;;;;6235706;28;20234;-81
2023/08/18 08:17:47;;;;;;;9.73;8.97;;;25.20;64.60;;;;;;6234203;28;20653;-80
2023/08/18 08:20:51;;;;;;;7.77;7.00;;;25.30;64.20;;;;;;6215776;28;20235;-81
2023/08/18 08:23:54;;;;;;;7.93;7.53;;;25.40;63.70;;;;;;6220516;28;20322;-80
2023/08/18 08:26:57;;;;;;;8.03;7.63;;;25.40;63.40;;;;;;6220469;28;20246;-79
2023/08/18 08:30:01;;;;;;;10.00;8.77;;;25.50;63.90;;;;;;6219098;28;20310;-80
2023/08/18 08:33:08;;;;;;;8.50;7.90;;;25.50;64.00;;;;;;6223080;28;20773;-82
2023/08/18 08:36:11;;;;;;;8.20;7.67;;;25.60;63.20;;;;;;6192421;28;20748;-82
2023/08/18 08:39:14;;;;;;;8.47;7.87;;;25.60;62.80;;;;;;6200924;28;20322;-81
2023/08/18 08:42:17;;;;;;;8.67;8.17;;;25.80;62.60;;;;;;6206948;28;20720;-83
2023/08/18 08:45:21;;;;;;;7.87;7.27;;;25.80;63.10;;;;;;6222418;28;20281;-82
2023/08/18 08:48:31;;;;;;;7.90;7.50;;;26.00;63.00;;;;;;6188176;28;20235;-83
2023/08/18 08:51:38;;;;;;;7.50;6.83;;;26.10;62.20;;;;;;6218140;28;20651;-84
2023/08/18 08:54:47;;;;;;;9.33;7.87;;;26.20;60.70;;;;;;6213432;28;20249;-81
2023/08/18 08:57:50;;;;;;;7.60;7.10;;;26.20;60.00;;;;;;6219424;28;20251;-82
2023/08/18 09:00:53;;;;;;;8.00;7.30;;;26.20;60.70;;;;;;6221678;28;20386;-80
2023/08/18 09:03:58;;;;;;;6.27;5.97;;;26.30;60.50;;;;;;6230177;28;20230;-82
2023/08/18 09:07:01;;;;;;;6.43;6.23;;;26.40;60.40;;;;;;6220759;28;20243;-82
2023/08/18 09:10:05;;;;;;;6.83;6.57;;;26.60;60.70;;;;;;6217042;28;20243;-83
2023/08/18 09:13:10;;;;;;;7.00;6.60;;;26.60;58.70;;;;;;6220831;28;20232;-81
2023/08/18 09:16:13;;;;;;;9.10;6.30;;;26.70;58.50;;;;;;6224828;28;20254;-84
2023/08/18 09:19:18;;;;;;;5.43;5.13;;;26.70;58.70;;;;;;6233172;28;20281;-80
2023/08/18 09:22:23;;;;;;;6.60;6.07;;;26.80;58.30;;;;;;6241517;28;20326;-81
2023/08/18 09:25:26;;;;;;;6.70;6.30;;;26.90;58.00;;;;;;6225315;28;20308;-85
2023/08/18 09:28:32;;;;;;;6.63;6.27;;;26.90;58.50;;;;;;6243664;28;20231;-80
2023/08/18 09:31:35;;;;;;;6.03;5.83;;;27.00;57.90;;;;;;6235595;28;20263;-81
2023/08/18 09:34:42;;;;;;;6.07;5.90;;;27.10;57.90;;;;;;6239630;28;20333;-82
2023/08/18 09:37:45;;;;;;;6.77;6.37;;;27.20;57.60;;;;;;6242685;28;20243;-80
2023/08/18 09:40:54;;;;;;;6.67;6.37;;;27.30;57.50;;;;;;6217236;28;20234;-81
2023/08/18 09:43:57;;;;;;;6.33;5.93;;;27.40;56.90;;;;;;6242141;28;20241;-81
2023/08/18 09:47:03;;;;;;;6.30;6.00;;;27.50;56.90;;;;;;6242127;28;20245;-82
2023/08/18 09:50:11;;;;;;;6.80;6.30;;;27.70;56.10;;;;;;6240699;28;20239;-80
2023/08/18 09:53:16;;;;;;;6.50;6.10;;;27.80;56.60;;;;;;6242766;28;20230;-80
2023/08/18 09:56:26;;;;;;;6.70;6.00;;;27.80;55.80;;;;;;6241188;28;20318;-79
2023/08/18 09:59:34;;;;;;;5.70;5.30;;;27.90;55.30;;;;;;6236800;28;20770;-83
2023/08/18 10:02:40;;;;;;;7.63;7.10;;;27.90;55.80;;;;;;6229212;28;20235;-80
2023/08/18 10:05:46;;;;;;;6.70;6.07;;;28.00;55.60;;;;;;6240315;28;20231;-82
2023/08/18 10:08:51;;;;;;;5.60;5.40;;;28.10;55.60;;;;;;6240824;28;20746;-83
2023/08/18 10:11:56;;;;;;;6.03;5.73;;;28.10;54.80;;;;;;6214159;28;20230;-80
2023/08/18 10:14:59;;;;;;;6.07;5.80;;;28.10;55.50;;;;;;6234313;28;20230;-83
2023/08/18 10:18:07;;;;;;;5.82;5.53;;;28.30;55.30;;;;;;6240774;28;20964;-80
2023/08/18 10:21:13;;;;;;;6.68;5.90;;;28.50;55.30;;;;;;6237210;28;20234;-81
2023/08/18 10:24:17;;;;;;;6.25;5.72;;;28.50;54.00;;;;;;6232624;28;20232;-80
2023/08/18 10:27:41;;;;;;;5.40;5.10;;;28.60;54.30;;;;;;6228804;28;20249;-81
2023/08/18 10:30:50;;;;;;;6.13;5.78;;;28.60;53.70;;;;;;6238083;28;20816;-81
2023/08/18 10:33:55;;;;;;;5.82;5.25;;;28.60;53.40;;;;;;6236541;28;20254;-79
2023/08/18 10:37:04;;;;;;;6.72;5.68;;;28.60;53.70;;;;;;6237104;28;20842;-82
2023/08/18 10:40:08;;;;;;;5.82;5.47;;;28.80;54.50;;;;;;6239415;28;20238;-80
2023/08/18 10:43:13;;;;;;;6.53;6.03;;;28.80;53.10;;;;;;6236986;28;20238;-79
2023/08/18 10:46:17;;;;;;;5.55;5.35;;;28.90;53.40;;;;;;6239722;28;20369;-82
2023/08/18 10:49:22;;;;;;;5.90;5.60;;;28.90;53.10;;;;;;6229925;28;20237;-82
2023/08/18 10:52:27;;;;;;;5.78;5.32;;;29.10;53.60;;;;;;6234448;28;20907;-82
2023/08/18 10:55:32;;;;;;;6.32;5.88;;;29.20;53.30;;;;;;6233993;28;20234;-80
2023/08/18 10:58:35;;;;;;;7.30;5.40;;;29.30;53.10;;;;;;6229629;28;20604;-79
2023/08/18 11:01:38;;;;;;;6.05;5.63;;;29.30;52.30;;;;;;6234966;28;20313;-79
2023/08/18 11:04:42;;;;;;;5.88;5.55;;;29.20;52.50;;;;;;6232022;28;20242;-80
2023/08/18 11:07:48;;;;;;;6.15;5.75;;;29.20;51.90;;;;;;6230573;28;21141;-79
2023/08/18 11:10:51;;;;;;;6.50;6.00;;;29.20;52.50;;;;;;6233606;28;20428;-80
2023/08/18 11:13:54;;;;;;;6.13;5.72;;;29.40;52.40;;;;;;6235792;28;20325;-80
2023/08/18 11:16:57;;;;;;;6.07;5.65;;;29.50;52.90;;;;;;6233275;28;20317;-81
2023/08/18 11:20:00;;;;;;;6.13;5.70;;;29.50;52.20;;;;;;6220790;28;20236;-81
2023/08/18 11:23:08;;;;;;;6.38;5.95;;;29.50;52.90;;;;;;6218139;28;20316;-82
2023/08/18 11:26:11;;;;;;;6.78;6.28;;;29.50;52.10;;;;;;6225302;28;20292;-80
2023/08/18 11:29:15;;;;;;;6.85;6.22;;;29.50;52.10;;;;;;6216384;28;20374;-82
2023/08/18 11:32:18;;;;;;;6.68;6.28;;;29.50;52.50;;;;;;6214306;28;20243;-80
2023/08/18 11:35:22;;;;;;;7.30;6.75;;;29.50;52.40;;;;;;6219880;28;20238;-83
2023/08/18 11:38:31;;;;;;;6.75;6.32;;;29.50;52.20;;;;;;6208528;28;20236;-79
2023/08/18 11:41:38;;;;;;;6.70;6.30;;;29.50;52.70;;;;;;6218640;28;20251;-81
2023/08/18 11:44:42;;;;;;;6.13;5.72;;;29.60;52.50;;;;;;6221746;28;20231;-80
2023/08/18 11:47:46;;;;;;;6.43;6.10;;;29.50;52.80;;;;;;6214509;28;20273;-82
2023/08/18 11:50:56;;;;;;;6.10;5.60;;;29.50;53.60;;;;;;6228192;28;20341;-80
2023/08/18 11:54:11;;;;;;;6.43;5.82;;;29.70;53.30;;;;;;6214891;28;20278;-83
2023/08/18 11:57:15;;;;;;;7.95;6.35;;;29.80;53.10;;;;;;6211841;28;20618;-82
2023/08/18 12:00:18;;;;;;;6.53;6.03;;;29.90;52.70;;;;;;6212493;28;20231;-81
2023/08/18 12:03:23;;;;;;;6.28;5.90;;;30.00;53.10;;;;;;6208402;28;20660;-81
2023/08/18 12:06:27;;;;;;;6.97;6.57;;;30.00;52.50;;;;;;6221307;28;20254;-80
2023/08/18 12:09:32;;;;;;;6.85;6.28;;;30.00;53.00;;;;;;6217750;28;20231;-81
2023/08/18 12:12:35;;;;;;;6.57;6.28;;;30.00;53.70;;;;;;6219197;28;20364;-80
2023/08/18 12:15:38;;;;;;;6.40;6.10;;;30.10;52.90;;;;;;6210188;28;20250;-82
2023/08/18 12:18:42;;;;;;;6.88;6.47;;;30.00;53.00;;;;;;6232004;28;20286;-78
2023/08/18 12:21:45;;;;;;;6.22;5.97;;;30.00;53.20;;;;;;6239716;28;20759;-80
2023/08/18 12:24:49;;;;;;;8.15;6.18;;;30.10;53.20;;;;;;6233786;28;20269;-79
2023/08/18 12:27:53;;;;;;;7.25;6.72;;;30.10;53.30;;;;;;6241969;28;20274;-79
2023/08/18 12:30:56;;;;;;;6.22;5.85;;;30.20;52.80;;;;;;6237344;28;20253;-81
2023/08/18 12:34:01;;;;;;;6.70;6.25;;;30.30;52.80;;;;;;6237691;28;20246;-80
2023/08/18 12:37:04;;;;;;;7.45;6.82;;;30.30;52.90;;;;;;6232311;28;20238;-84
2023/08/18 12:40:10;;;;;;;6.65;6.35;;;30.20;53.10;;;;;;6242462;28;20291;-80
2023/08/18 12:43:13;;;;;;;7.05;6.63;;;30.00;53.10;;;;;;6235425;28;20885;-80
2023/08/18 12:46:16;;;;;;;6.72;6.15;;;29.80;53.30;;;;;;6241785;28;20289;-82
2023/08/18 12:49:19;;;;;;;7.15;6.75;;;29.90;53.90;;;;;;6239495;28;20235;-81
2023/08/18 12:52:23;;;;;;;7.43;7.03;;;30.00;53.80;;;;;;6233969;28;20333;-80
2023/08/18 12:55:28;;;;;;;6.55;6.13;;;30.00;53.60;;;;;;6239285;28;20242;-80
2023/08/18 12:58:34;;;;;;;7.70;7.15;;;30.10;53.70;;;;;;6255666;28;20218;-78
2023/08/18 13:01:37;;;;;;;6.63;6.22;;;30.30;53.40;;;;;;6259639;28;20223;-76
2023/08/18 13:04:40;;;;;;;5.45;5.25;;;30.40;52.40;;;;;;6272750;28;20249;-80
2023/08/18 13:07:43;;;;;;;6.97;6.28;;;30.50;52.90;;;;;;6272879;28;20226;-80
2023/08/18 13:10:53;;;;;;;6.88;6.28;;;30.40;53.30;;;;;;6272158;28;20226;-80
2023/08/18 13:13:56;;;;;;;6.97;6.60;;;30.60;53.70;;;;;;6269607;28;20261;-80
2023/08/18 13:17:00;;;;;;;7.32;7.00;;;30.60;52.50;;;;;;6259990;28;20227;-78
2023/08/18 13:20:08;;;;;;;7.03;6.57;;;30.40;52.70;;;;;;6269237;28;20219;-79
2023/08/18 13:23:11;;;;;;;6.45;6.25;;;30.30;53.60;;;;;;6271496;28;20249;-81
2023/08/18 13:26:16;;;;;;;6.93;6.60;;;30.10;53.10;;;;;;6272150;28;20225;-80
2023/08/18 13:29:19;;;;;;;7.63;6.90;;;30.10;53.70;;;;;;6261832;28;20226;-80
2023/08/18 13:32:26;;;;;;;7.10;6.75;;;30.20;53.70;;;;;;6269634;28;20234;-80
2023/08/18 13:35:29;;;;;;;7.95;7.15;;;30.40;53.00;;;;;;6269529;28;20231;-82
2023/08/18 13:38:33;;;;;;;7.63;6.90;;;30.50;52.50;;;;;;6264054;28;20394;-79
2023/08/18 13:41:38;;;;;;;9.02;6.90;;;30.50;52.20;;;;;;6252304;28;20230;-79
2023/08/18 13:44:41;;;;;;;7.93;7.32;;;30.50;52.90;;;;;;6241716;28;20258;-80
2023/08/18 13:47:44;;;;;;;6.90;6.38;;;30.50;52.00;;;;;;6238288;28;20238;-80
2023/08/18 13:50:47;;;;;;;6.90;6.40;;;30.50;53.00;;;;;;6242301;28;20239;-82
2023/08/18 13:53:50;;;;;;;7.30;6.90;;;30.60;52.50;;;;;;6241273;28;20380;-81
2023/08/18 13:56:55;;;;;;;6.90;6.60;;;30.60;53.30;;;;;;6223471;28;20853;-79
2023/08/18 13:59:58;;;;;;;6.75;6.35;;;30.60;52.40;;;;;;6243234;28;20342;-81
2023/08/18 14:03:01;;;;;;;7.15;6.63;;;30.70;52.80;;;;;;6242588;28;20246;-83
2023/08/18 14:06:04;;;;;;;7.60;7.03;;;30.80;51.60;;;;;;6242140;28;20234;-81
2023/08/18 14:09:07;;;;;;;7.50;7.10;;;30.70;52.00;;;;;;6233217;28;20239;-81
2023/08/18 14:12:12;;;;;;;7.05;6.75;;;30.80;52.80;;;;;;6238220;28;20230;-82
2023/08/18 14:15:16;;;;;;;6.65;6.35;;;30.80;51.60;;;;;;6222092;28;20461;-81
2023/08/18 14:18:19;;;;;;;6.82;6.53;;;30.90;51.80;;;;;;6234521;28;20239;-80
2023/08/18 14:21:22;;;;;;;7.60;6.97;;;31.00;51.20;;;;;;6239469;28;20309;-81
2023/08/18 14:24:26;;;;;;;6.93;6.40;;;30.70;51.60;;;;;;6232080;28;21062;-80
2023/08/18 14:27:30;;;;;;;6.82;6.32;;;30.60;51.60;;;;;;6238882;28;20712;-79
2023/08/18 14:30:34;;;;;;;6.90;6.40;;;30.50;52.20;;;;;;6239273;28;20256;-79
2023/08/18 14:33:37;;;;;;;7.22;6.75;;;30.50;52.20;;;;;;6235396;28;20230;-79
2023/08/18 14:36:49;;;;;;;6.70;6.30;;;30.50;51.70;;;;;;6238611;28;20305;-79
2023/08/18 14:39:52;;;;;;;6.75;6.38;;;30.50;52.40;;;;;;6237649;28;20238;-78
2023/08/18 14:42:56;;;;;;;6.57;6.28;;;30.70;52.60;;;;;;6241398;28;20235;-79
2023/08/18 14:46:13;;;;;;;7.72;7.03;;;30.70;52.30;;;;;;6238421;28;20242;-78
2023/08/18 14:49:16;;;;;;;6.63;6.32;;;30.60;51.90;;;;;;6238033;28;20235;-79
2023/08/18 14:52:19;;;;;;;6.50;6.22;;;30.70;51.40;;;;;;6241397;28;20825;-79
2023/08/18 14:55:22;;;;;;;7.18;6.78;;;30.70;51.30;;;;;;6240724;28;20297;-79
2023/08/18 14:58:28;;;;;;;6.88;6.47;;;30.80;50.40;;;;;;6224266;28;20247;-80
2023/08/18 15:01:33;;;;;;;6.57;6.05;;;30.90;51.30;;;;;;6237796;28;20337;-78
2023/08/18 15:04:36;;;;;;;7.13;6.40;;;31.00;51.50;;;;;;6238452;28;20243;-81
2023/08/18 15:07:39;;;;;;;7.60;7.20;;;31.20;51.60;;;;;;6231196;28;20254;-78
2023/08/18 15:10:42;;;;;;;7.28;6.97;;;31.30;51.60;;;;;;6237927;28;20621;-80
2023/08/18 15:13:47;;;;;;;8.45;8.05;;;31.10;51.80;;;;;;6237475;28;20663;-78
2023/08/18 15:16:50;;;;;;;7.43;7.13;;;31.20;52.10;;;;;;6236254;28;20249;-79
2023/08/18 15:19:53;;;;;;;7.55;7.00;;;31.30;52.40;;;;;;6223270;28;20325;-77
2023/08/18 15:22:57;;;;;;;7.82;7.22;;;31.30;52.00;;;;;;6217112;28;20749;-79
2023/08/18 15:26:00;;;;;;;7.60;7.22;;;31.40;51.80;;;;;;6230445;28;20312;-79
2023/08/18 15:29:06;;;;;;;7.63;7.22;;;31.40;51.40;;;;;;6217470;28;20299;-81
2023/08/18 15:32:09;;;;;;;7.95;7.18;;;31.30;51.60;;;;;;6220726;28;20418;-80
2023/08/18 15:35:12;;;;;;;7.82;7.35;;;31.30;50.90;;;;;;6213419;28;20234;-79
2023/08/18 15:38:15;;;;;;;7.32;6.95;;;31.20;51.60;;;;;;6213746;28;20273;-80
2023/08/18 15:41:18;;;;;;;7.68;7.25;;;31.30;51.70;;;;;;6214394;28;20869;-77
2023/08/18 15:44:24;;;;;;;7.55;7.15;;;31.50;51.90;;;;;;6222410;28;20332;-79
2023/08/18 15:47:27;;;;;;;7.97;7.43;;;31.50;51.20;;;;;;6194723;28;20623;-77
2023/08/18 15:50:31;;;;;;;8.77;8.00;;;31.30;51.90;;;;;;6213054;28;20230;-79
2023/08/18 15:53:34;;;;;;;7.18;6.78;;;31.10;51.60;;;;;;6209624;28;20267;-81